createdAt,value
2023-02-15T00:01:37.499Z,15.63
2023-02-15T00:04:05.360Z,16.00
2023-02-15T00:06:31.917Z,16.43
2023-02-15T00:08:59.568Z,16.13
2023-02-15T00:11:41.804Z,17.73
2023-02-15T00:14:20.088Z,16.40
2023-02-15T00:16:47.496Z,16.83
2023-02-15T00:19:16.421Z,18.20
2023-02-15T00:21:43.296Z,17.50
2023-02-15T00:24:12.283Z,17.50
2023-02-15T00:26:40.687Z,19.37
2023-02-15T00:29:07.354Z,16.67
2023-02-15T00:31:34.388Z,17.50
2023-02-15T00:34:16.196Z,15.53
2023-02-15T00:36:43.588Z,16.90
2023-02-15T00:39:10.223Z,17.43
2023-02-15T00:41:37.116Z,17.87
2023-02-15T00:44:04.254Z,18.73
2023-02-15T00:46:31.459Z,20.27
2023-02-15T00:48:57.968Z,17.90
2023-02-15T00:51:25.128Z,17.77
2023-02-15T00:53:52.098Z,18.10
2023-02-15T00:56:18.725Z,17.73
2023-02-15T00:58:45.341Z,16.93
2023-02-15T01:01:15.400Z,16.63
2023-02-15T01:03:45.178Z,17.10
2023-02-15T01:06:11.926Z,17.50
2023-02-15T01:08:39.345Z,16.10
2023-02-15T01:11:09.383Z,16.80
2023-02-15T01:13:36.534Z,17.73
2023-02-15T01:16:05.177Z,17.63
2023-02-15T01:18:34.650Z,17.30
2023-02-15T01:21:01.148Z,15.50
2023-02-15T01:23:27.658Z,14.80
2023-02-15T01:25:54.075Z,15.43
2023-02-15T01:28:20.519Z,16.30
2023-02-15T01:30:47.088Z,17.67
2023-02-15T01:33:18.726Z,17.57
2023-02-15T01:35:46.916Z,17.80
2023-02-15T01:38:15.157Z,17.60
2023-02-15T01:40:41.993Z,17.97
2023-02-15T01:43:13.420Z,18.73
2023-02-15T01:45:40.260Z,18.67
2023-02-15T01:48:13.610Z,21.27
2023-02-15T01:51:02.984Z,20.27
2023-02-15T01:53:41.392Z,20.90
2023-02-15T01:56:13.923Z,19.60
2023-02-15T01:58:40.981Z,20.40
2023-02-15T02:01:09.062Z,19.53
2023-02-15T02:04:14.078Z,18.83
2023-02-15T02:06:40.933Z,17.30
2023-02-15T02:09:07.450Z,18.93
2023-02-15T02:11:35.006Z,18.40
2023-02-15T02:14:01.483Z,18.03
2023-02-15T02:16:56.949Z,20.27
2023-02-15T02:19:44.612Z,18.53
2023-02-15T02:22:25.119Z,18.90
2023-02-15T02:25:14.859Z,18.17
2023-02-15T02:28:18.918Z,17.50
2023-02-15T02:31:07.431Z,18.53
2023-02-15T02:33:59.148Z,18.53
2023-02-15T02:36:55.382Z,18.13
2023-02-15T02:39:31.720Z,17.27
2023-02-15T02:42:16.140Z,17.47
2023-02-15T02:45:10.386Z,17.43
2023-02-15T02:47:49.766Z,16.60
2023-02-15T02:50:25.007Z,17.97
2023-02-15T02:52:54.256Z,17.70
2023-02-15T02:55:36.344Z,17.47
2023-02-15T02:58:24.691Z,18.20
2023-02-15T03:00:58.282Z,19.10
2023-02-15T03:03:42.871Z,17.30
2023-02-15T03:06:18.775Z,18.60
2023-02-15T03:08:58.504Z,18.60
2023-02-15T03:11:24.998Z,17.70
2023-02-15T03:13:51.814Z,17.50
2023-02-15T03:16:27.482Z,19.10
2023-02-15T03:19:09.663Z,18.60
2023-02-15T03:21:58.390Z,18.97
2023-02-15T03:24:49.938Z,19.60
2023-02-15T03:27:21.015Z,19.70
2023-02-15T03:29:53.148Z,18.47
2023-02-15T03:32:20.098Z,18.97
2023-02-15T03:34:47.216Z,17.80
2023-02-15T03:37:22.855Z,18.30
2023-02-15T03:39:57.531Z,17.30
2023-02-15T03:42:30.325Z,19.03
2023-02-15T03:45:04.844Z,18.90
2023-02-15T03:47:35.472Z,18.33
2023-02-15T03:50:40.314Z,20.37
2023-02-15T03:53:11.562Z,20.73
2023-02-15T03:55:38.321Z,19.57
2023-02-15T03:58:23.422Z,20.43
2023-02-15T04:01:17.888Z,18.90
2023-02-15T04:03:51.540Z,18.47
2023-02-15T04:06:17.974Z,17.57
2023-02-15T04:09:03.016Z,18.57
2023-02-15T04:11:29.452Z,18.33
2023-02-15T04:13:57.499Z,20.77
2023-02-15T04:16:27.933Z,20.10
2023-02-15T04:19:13.862Z,20.30
2023-02-15T04:21:58.649Z,19.13
2023-02-15T04:24:43.380Z,18.50
2023-02-15T04:27:10.025Z,20.97
2023-02-15T04:29:36.467Z,20.90
2023-02-15T04:32:03.508Z,20.47
2023-02-15T04:34:30.056Z,19.07
2023-02-15T04:36:56.553Z,20.87
2023-02-15T04:39:23.047Z,21.17
2023-02-15T04:41:49.447Z,21.70
2023-02-15T04:44:16.479Z,21.00
2023-02-15T04:46:43.019Z,21.50
2023-02-15T04:49:10.293Z,21.07
2023-02-15T04:51:37.287Z,21.73
2023-02-15T04:54:03.838Z,20.63
2023-02-15T04:56:31.050Z,19.73
2023-02-15T04:58:57.824Z,20.93
2023-02-15T05:01:24.337Z,21.00
2023-02-15T05:03:50.754Z,21.53
2023-02-15T05:06:17.220Z,21.40
2023-02-15T05:08:43.659Z,20.37
2023-02-15T05:11:10.103Z,17.77
2023-02-15T05:13:36.610Z,16.50
2023-02-15T05:16:03.323Z,16.20
2023-02-15T05:18:30.108Z,16.43
2023-02-15T05:20:56.641Z,18.27
2023-02-15T05:23:23.108Z,19.23
2023-02-15T05:26:08.647Z,20.57
2023-02-15T05:28:36.690Z,20.57
2023-02-15T05:31:07.754Z,21.17
2023-02-15T05:33:35.114Z,22.13
2023-02-15T05:36:02.891Z,22.37
2023-02-15T05:38:30.176Z,19.50
2023-02-15T05:40:56.865Z,18.97
2023-02-15T05:43:24.314Z,23.57
2023-02-15T05:45:53.064Z,21.13
2023-02-15T05:48:21.253Z,20.00
2023-02-15T05:50:57.446Z,19.47
2023-02-15T05:53:23.939Z,18.70
2023-02-15T05:56:00.657Z,18.87
2023-02-15T05:58:28.098Z,19.80
2023-02-15T06:00:54.595Z,21.97
2023-02-15T06:03:21.185Z,20.87
2023-02-15T06:05:47.663Z,20.23
2023-02-15T06:08:14.080Z,20.73
2023-02-15T06:10:41.089Z,21.63
2023-02-15T06:13:07.901Z,21.57
2023-02-15T06:15:34.559Z,21.80
2023-02-15T06:18:00.982Z,22.17
2023-02-15T06:20:27.712Z,23.37
2023-02-15T06:22:54.115Z,21.17
2023-02-15T06:25:20.573Z,24.60
2023-02-15T06:27:47.080Z,23.03
2023-02-15T06:30:14.183Z,21.80
2023-02-15T06:32:41.485Z,23.67
2023-02-15T06:35:08.171Z,24.00
2023-02-15T06:37:34.659Z,24.03
2023-02-15T06:40:03.654Z,24.20
2023-02-15T06:42:30.834Z,23.30
2023-02-15T06:44:57.303Z,24.40
2023-02-15T06:47:23.712Z,23.63
2023-02-15T06:49:50.134Z,23.80
2023-02-15T06:52:16.599Z,24.73
2023-02-15T06:54:43.004Z,22.43
2023-02-15T06:57:10.449Z,24.57
2023-02-15T06:59:36.938Z,24.30
2023-02-15T07:02:03.361Z,24.80
2023-02-15T07:04:30.973Z,24.10
2023-02-15T07:06:57.523Z,24.47
2023-02-15T07:09:24.486Z,25.10
2023-02-15T07:12:09.282Z,22.30
2023-02-15T07:14:35.797Z,22.80
2023-02-15T07:17:02.241Z,24.80
2023-02-15T07:19:28.678Z,22.97
2023-02-15T07:21:55.141Z,24.27
2023-02-15T07:24:21.663Z,23.30
2023-02-15T07:26:48.092Z,23.20
2023-02-15T07:29:14.536Z,23.13
2023-02-15T07:31:41.025Z,23.20
2023-02-15T07:34:08.524Z,23.60
2023-02-15T07:36:35.017Z,22.70
2023-02-15T07:39:01.481Z,24.17
2023-02-15T07:41:27.886Z,23.60
2023-02-15T07:43:54.308Z,24.53
2023-02-15T07:46:21.800Z,23.03
2023-02-15T07:48:48.816Z,24.03
2023-02-15T07:51:16.730Z,25.17
2023-02-15T07:53:43.292Z,23.40
2023-02-15T07:56:14.507Z,25.90
2023-02-15T07:58:53.054Z,23.93
2023-02-15T08:01:24.913Z,24.40
2023-02-15T08:03:51.690Z,25.20
2023-02-15T08:06:18.231Z,24.47
2023-02-15T08:08:44.798Z,24.27
2023-02-15T08:11:26.407Z,23.20
2023-02-15T08:13:55.624Z,23.43
2023-02-15T08:16:26.293Z,22.57
2023-02-15T08:18:53.618Z,24.07
2023-02-15T08:21:24.412Z,22.87
2023-02-15T08:23:53.987Z,23.13
2023-02-15T08:26:20.407Z,24.50
2023-02-15T08:28:47.487Z,23.33
2023-02-15T08:31:14.559Z,25.17
2023-02-15T08:33:43.016Z,26.17
2023-02-15T08:36:15.323Z,30.43
2023-02-15T08:38:42.724Z,26.60
2023-02-15T08:41:23.522Z,26.77
2023-02-15T08:44:01.891Z,24.07
2023-02-15T08:46:31.104Z,23.20
2023-02-15T08:48:57.930Z,22.80
2023-02-15T08:51:27.246Z,23.20
2023-02-15T08:53:56.110Z,22.80
2023-02-15T08:56:26.813Z,21.53
2023-02-15T08:58:57.366Z,23.93
2023-02-15T09:01:26.542Z,20.47
2023-02-15T09:03:58.101Z,20.10
2023-02-15T09:06:25.928Z,20.03
2023-02-15T09:08:53.759Z,19.47
2023-02-15T09:11:24.532Z,19.07
2023-02-15T09:13:54.336Z,18.70
2023-02-15T09:16:22.568Z,19.17
2023-02-15T09:18:49.860Z,18.77
2023-02-15T09:21:18.795Z,17.93
2023-02-15T09:23:46.973Z,18.03
2023-02-15T09:26:16.106Z,18.40
2023-02-15T09:28:43.842Z,18.33
2023-02-15T09:31:24.195Z,17.23
2023-02-15T09:33:51.025Z,17.37
2023-02-15T09:36:32.251Z,17.47
2023-02-15T09:39:04.113Z,15.80
2023-02-15T09:41:33.628Z,17.17
2023-02-15T09:44:23.842Z,16.57
2023-02-15T09:46:59.271Z,15.47
2023-02-15T09:49:40.803Z,17.50
2023-02-15T09:52:23.167Z,16.83
2023-02-15T09:55:37.148Z,17.60
2023-02-15T09:58:30.244Z,17.40
2023-02-15T10:01:09.924Z,15.87
2023-02-15T10:03:48.005Z,16.87
2023-02-15T10:06:43.126Z,16.97
2023-02-15T10:09:54.268Z,16.20
2023-02-15T10:12:43.627Z,15.50
2023-02-15T10:15:22.254Z,14.93
2023-02-15T10:18:10.527Z,15.23
2023-02-15T10:21:01.338Z,14.57
2023-02-15T10:23:56.563Z,13.47
2023-02-15T10:26:29.333Z,16.93
2023-02-15T10:29:17.172Z,14.90
2023-02-15T10:31:54.157Z,13.67
2023-02-15T10:34:31.849Z,14.70
2023-02-15T10:37:05.345Z,13.40
2023-02-15T10:39:58.657Z,13.67
2023-02-15T10:42:50.427Z,13.30
2023-02-15T10:45:50.958Z,15.30
2023-02-15T10:48:47.036Z,17.50
2023-02-15T10:51:30.352Z,21.17
2023-02-15T10:54:20.505Z,17.17
2023-02-15T10:56:55.017Z,16.00
2023-02-15T10:59:33.230Z,14.53
2023-02-15T11:02:08.456Z,14.20
2023-02-15T11:04:43.059Z,14.57
2023-02-15T11:07:17.034Z,14.00
2023-02-15T11:10:06.212Z,13.20
2023-02-15T11:12:34.236Z,13.53
2023-02-15T11:15:19.471Z,14.10
2023-02-15T11:17:58.900Z,13.20
2023-02-15T11:20:37.945Z,13.97
2023-02-15T11:23:16.341Z,12.93
2023-02-15T11:25:47.429Z,14.07
2023-02-15T11:28:23.195Z,13.07
2023-02-15T11:30:54.768Z,12.27
2023-02-15T11:33:28.357Z,13.93
2023-02-15T11:36:01.339Z,13.00
2023-02-15T11:38:33.753Z,13.00
2023-02-15T11:41:12.110Z,13.53
2023-02-15T11:43:50.989Z,13.17
2023-02-15T11:46:17.572Z,12.93
2023-02-15T11:48:44.398Z,13.20
2023-02-15T11:51:17.026Z,14.33
2023-02-15T11:53:45.492Z,14.43
2023-02-15T11:56:17.655Z,13.17
2023-02-15T11:58:53.709Z,13.10
2023-02-15T12:01:45.628Z,14.10
2023-02-15T12:04:34.353Z,13.80
2023-02-15T12:07:12.550Z,14.03
2023-02-15T12:09:50.504Z,12.53
2023-02-15T12:12:29.362Z,13.90
2023-02-15T12:15:01.866Z,12.63
2023-02-15T12:17:35.471Z,13.27
2023-02-15T12:20:04.713Z,12.77
2023-02-15T12:22:35.078Z,17.10
2023-02-15T12:25:21.166Z,17.53
2023-02-15T12:27:49.025Z,15.60
2023-02-15T12:30:38.249Z,16.13
2023-02-15T12:33:26.444Z,16.10
2023-02-15T12:36:01.972Z,17.13
2023-02-15T12:38:29.723Z,15.30
2023-02-15T12:41:20.940Z,14.50
2023-02-15T12:43:47.486Z,12.40
2023-02-15T12:46:27.449Z,12.10
2023-02-15T12:49:20.166Z,12.10
2023-02-15T12:51:57.544Z,13.13
2023-02-15T12:54:31.565Z,13.30
2023-02-15T12:56:59.498Z,13.00
2023-02-15T12:59:26.084Z,12.73
2023-02-15T13:01:57.009Z,11.20
2023-02-15T13:04:29.499Z,12.00
2023-02-15T13:07:00.851Z,12.70
2023-02-15T13:09:33.336Z,12.20
2023-02-15T13:12:22.924Z,12.30
2023-02-15T13:14:52.755Z,13.03
2023-02-15T13:17:25.819Z,12.53
2023-02-15T13:19:55.479Z,12.37
2023-02-15T13:22:49.797Z,11.60
2023-02-15T13:25:32.309Z,11.10
2023-02-15T13:28:03.816Z,10.53
2023-02-15T13:30:35.991Z,11.50
2023-02-15T13:33:27.230Z,10.70
2023-02-15T13:36:02.095Z,11.37
2023-02-15T13:38:44.509Z,10.70
2023-02-15T13:41:15.970Z,10.60
2023-02-15T13:44:03.607Z,10.07
2023-02-15T13:46:51.579Z,9.70
2023-02-15T13:49:39.871Z,11.00
2023-02-15T13:52:22.785Z,11.30
2023-02-15T13:55:04.145Z,10.80
2023-02-15T13:58:08.010Z,10.87
2023-02-15T14:01:06.386Z,10.60
2023-02-15T14:04:07.793Z,10.47
2023-02-15T14:06:52.534Z,9.63
2023-02-15T14:09:37.641Z,10.70
2023-02-15T14:12:42.545Z,10.63
2023-02-15T14:15:23.418Z,10.27
2023-02-15T14:17:52.817Z,10.60
2023-02-15T14:20:39.071Z,11.13
2023-02-15T14:23:17.670Z,10.70
2023-02-15T14:25:55.248Z,10.90
2023-02-15T14:28:32.697Z,10.37
2023-02-15T14:30:59.455Z,10.87
2023-02-15T14:33:54.784Z,10.30
2023-02-15T14:36:21.635Z,10.83
2023-02-15T14:39:45.884Z,10.43
2023-02-15T14:42:25.411Z,10.30
2023-02-15T14:45:17.897Z,11.90
2023-02-15T14:48:01.599Z,11.83
2023-02-15T14:50:31.103Z,12.13
2023-02-15T14:53:17.052Z,11.40
2023-02-15T14:55:43.511Z,11.33
2023-02-15T14:58:14.509Z,11.30
2023-02-15T15:00:42.521Z,11.63
2023-02-15T15:03:44.206Z,11.97
2023-02-15T15:06:26.511Z,11.97
2023-02-15T15:09:00.529Z,11.23
2023-02-15T15:11:42.423Z,12.40
2023-02-15T15:14:11.625Z,11.90
2023-02-15T15:16:38.354Z,12.53
2023-02-15T15:19:10.356Z,12.23
2023-02-15T15:21:57.233Z,11.67
2023-02-15T15:24:39.106Z,11.30
2023-02-15T15:27:40.993Z,11.43
2023-02-15T15:30:19.860Z,12.30
2023-02-15T15:32:55.799Z,10.80
2023-02-15T15:35:31.262Z,12.80
2023-02-15T15:38:13.280Z,11.60
2023-02-15T15:40:55.678Z,11.67
2023-02-15T15:43:43.479Z,11.27
2023-02-15T15:46:38.450Z,12.10
2023-02-15T15:49:16.351Z,12.80
2023-02-15T15:51:44.450Z,11.97
2023-02-15T15:54:18.250Z,13.30
2023-02-15T15:56:52.559Z,13.07
2023-02-15T15:59:28.617Z,11.60
2023-02-15T16:01:56.044Z,12.90
2023-02-15T16:04:32.952Z,12.30
2023-02-15T16:07:17.384Z,11.90
2023-02-15T16:10:20.150Z,12.90
2023-02-15T16:12:49.678Z,11.13
2023-02-15T16:15:24.552Z,11.40
2023-02-15T16:17:55.858Z,11.10
2023-02-15T16:20:35.053Z,12.37
2023-02-15T16:23:24.667Z,11.93
2023-02-15T16:25:51.192Z,11.80
2023-02-15T16:28:19.567Z,12.43
2023-02-15T16:30:46.136Z,11.60
2023-02-15T16:33:18.271Z,11.40
2023-02-15T16:35:59.194Z,10.70
2023-02-15T16:38:46.511Z,11.30
2023-02-15T16:41:17.383Z,12.03
2023-02-15T16:43:48.606Z,11.63
2023-02-15T16:46:21.876Z,12.23
2023-02-15T16:48:52.713Z,16.00
2023-02-15T16:51:27.565Z,13.53
2023-02-15T16:53:56.546Z,13.07
2023-02-15T16:56:29.338Z,12.37
2023-02-15T16:58:56.620Z,11.27
2023-02-15T17:01:27.260Z,12.00
2023-02-15T17:04:26.921Z,12.00
2023-02-15T17:07:14.985Z,12.80
2023-02-15T17:09:51.253Z,12.40
2023-02-15T17:12:58.612Z,12.13
2023-02-15T17:15:36.733Z,10.97
2023-02-15T17:18:10.781Z,12.30
2023-02-15T17:20:39.733Z,13.10
2023-02-15T17:23:06.723Z,13.70
2023-02-15T17:25:39.471Z,12.00
2023-02-15T17:28:16.342Z,13.40
2023-02-15T17:30:47.066Z,12.60
2023-02-15T17:33:29.890Z,14.20
2023-02-15T17:36:15.496Z,12.10
2023-02-15T17:39:03.221Z,13.90
2023-02-15T17:41:38.780Z,14.07
2023-02-15T17:44:05.302Z,14.17
2023-02-15T17:46:37.965Z,13.93
2023-02-15T17:49:04.872Z,14.40
2023-02-15T17:51:32.229Z,12.97
2023-02-15T17:54:17.348Z,14.70
2023-02-15T17:56:43.819Z,16.27
2023-02-15T17:59:12.329Z,13.70
2023-02-15T18:02:04.575Z,13.70
2023-02-15T18:04:52.016Z,14.97
2023-02-15T18:07:38.373Z,16.33
2023-02-15T18:10:35.846Z,15.10
2023-02-15T18:13:02.335Z,14.30
2023-02-15T18:15:29.168Z,14.60
2023-02-15T18:17:56.445Z,14.50
2023-02-15T18:20:26.991Z,13.97
2023-02-15T18:22:54.253Z,14.93
2023-02-15T18:25:24.137Z,15.87
2023-02-15T18:27:51.364Z,15.27
2023-02-15T18:30:21.717Z,15.23
2023-02-15T18:32:51.503Z,14.53
2023-02-15T18:35:24.152Z,15.07
2023-02-15T18:37:52.950Z,13.37
2023-02-15T18:40:22.205Z,14.60
2023-02-15T18:42:49.483Z,25.87
2023-02-15T18:45:23.509Z,32.37
2023-02-15T18:47:50.351Z,42.97
2023-02-15T18:50:19.103Z,35.93
2023-02-15T18:52:48.107Z,32.43
2023-02-15T18:55:23.543Z,23.17
2023-02-15T18:57:52.237Z,24.20
2023-02-15T19:00:30.105Z,18.17
2023-02-15T19:02:57.040Z,15.60
2023-02-15T19:05:25.134Z,15.37
2023-02-15T19:07:52.027Z,16.63
2023-02-15T19:10:21.407Z,17.00
2023-02-15T19:12:48.436Z,17.07
2023-02-15T19:15:26.862Z,17.47
2023-02-15T19:17:54.341Z,19.27
2023-02-15T19:20:31.822Z,20.10
2023-02-15T19:23:01.462Z,17.07
2023-02-15T19:25:30.553Z,17.67
2023-02-15T19:27:58.380Z,16.70
2023-02-15T19:30:28.602Z,16.67
2023-02-15T19:32:58.607Z,16.23
2023-02-15T19:35:29.893Z,15.23
2023-02-15T19:37:59.576Z,16.33
2023-02-15T19:40:30.666Z,17.00
2023-02-15T19:42:57.776Z,14.97
2023-02-15T19:45:27.232Z,16.97
2023-02-15T19:47:55.113Z,16.50
2023-02-15T19:50:25.134Z,18.37
2023-02-15T19:52:52.976Z,16.50
2023-02-15T19:55:26.925Z,16.60
2023-02-15T19:57:55.056Z,17.30
2023-02-15T20:00:25.703Z,16.67
2023-02-15T20:02:53.431Z,15.67
2023-02-15T20:05:21.273Z,16.27
2023-02-15T20:07:49.819Z,16.43
2023-02-15T20:10:22.013Z,16.33
2023-02-15T20:12:48.747Z,16.20
2023-02-15T20:15:21.233Z,16.47
2023-02-15T20:17:48.127Z,15.00
2023-02-15T20:20:15.673Z,14.87
2023-02-15T20:22:44.810Z,14.83
2023-02-15T20:25:27.892Z,14.93
2023-02-15T20:27:54.650Z,16.50
2023-02-15T20:30:23.817Z,17.30
2023-02-15T20:32:50.926Z,15.90
2023-02-15T20:35:19.732Z,16.43
2023-02-15T20:37:49.540Z,16.70
2023-02-15T20:40:19.644Z,15.23
2023-02-15T20:42:47.113Z,15.90
2023-02-15T20:45:28.294Z,16.50
2023-02-15T20:47:55.354Z,16.73
2023-02-15T20:50:25.786Z,18.30
2023-02-15T20:52:54.129Z,15.57
2023-02-15T20:55:29.252Z,17.37
2023-02-15T20:57:56.836Z,17.13
2023-02-15T21:00:26.905Z,18.33
2023-02-15T21:03:01.333Z,15.90
2023-02-15T21:05:30.757Z,16.20
2023-02-15T21:07:57.717Z,16.70
2023-02-15T21:10:27.852Z,16.27
2023-02-15T21:12:54.450Z,17.13
2023-02-15T21:15:41.899Z,15.60
2023-02-15T21:18:15.970Z,16.50
2023-02-15T21:20:48.359Z,16.80
2023-02-15T21:23:17.513Z,16.60
2023-02-15T21:25:44.809Z,18.17
2023-02-15T21:28:20.185Z,17.23
2023-02-15T21:30:48.418Z,15.87
2023-02-15T21:33:15.218Z,15.40
2023-02-15T21:35:43.254Z,18.33
2023-02-15T21:38:15.006Z,15.87
2023-02-15T21:40:42.332Z,15.20
2023-02-15T21:43:40.171Z,16.07
2023-02-15T21:46:37.259Z,16.80
2023-02-15T21:49:07.110Z,16.97
2023-02-15T21:51:52.682Z,18.00
2023-02-15T21:54:20.178Z,16.57
2023-02-15T21:56:48.718Z,16.90
2023-02-15T21:59:17.001Z,18.17
2023-02-15T22:01:51.368Z,16.57
2023-02-15T22:04:25.816Z,17.03
2023-02-15T22:06:53.000Z,16.70
2023-02-15T22:09:22.951Z,18.27
2023-02-15T22:11:50.553Z,16.60
2023-02-15T22:14:39.681Z,18.53
2023-02-15T22:17:16.635Z,18.13
2023-02-15T22:19:44.551Z,19.60
2023-02-15T22:22:12.018Z,18.57
2023-02-15T22:24:39.072Z,16.83
2023-02-15T22:27:06.680Z,19.07
2023-02-15T22:29:34.050Z,18.17
2023-02-15T22:32:00.608Z,18.40
2023-02-15T22:34:29.998Z,18.03
2023-02-15T22:36:57.607Z,18.03
2023-02-15T22:39:25.348Z,19.17
2023-02-15T22:41:53.062Z,18.63
2023-02-15T22:44:32.249Z,16.83
2023-02-15T22:47:00.191Z,16.93
2023-02-15T22:49:27.222Z,17.50
2023-02-15T22:51:54.040Z,16.10
2023-02-15T22:54:20.666Z,14.73
2023-02-15T22:56:53.132Z,16.80
2023-02-15T22:59:24.458Z,17.60
2023-02-15T23:01:51.093Z,18.40
2023-02-15T23:04:23.652Z,17.03
2023-02-15T23:06:51.465Z,17.20
2023-02-15T23:09:17.912Z,15.80
2023-02-15T23:11:45.880Z,17.17
2023-02-15T23:14:27.606Z,16.10
2023-02-15T23:16:54.505Z,16.03
2023-02-15T23:19:21.347Z,17.73
2023-02-15T23:21:48.435Z,16.47
2023-02-15T23:24:19.350Z,17.07
2023-02-15T23:26:46.186Z,18.37
2023-02-15T23:29:18.626Z,15.80
2023-02-15T23:31:48.315Z,18.23
2023-02-15T23:34:26.043Z,17.20
2023-02-15T23:36:52.604Z,17.53
2023-02-15T23:39:40.194Z,15.77
2023-02-15T23:42:11.908Z,15.63
2023-02-15T23:44:40.593Z,17.00
2023-02-15T23:47:19.384Z,17.47
2023-02-15T23:49:45.828Z,18.40
2023-02-15T23:52:12.312Z,18.50
2023-02-15T23:54:38.734Z,19.30
2023-02-15T23:57:06.294Z,14.90
2023-02-15T23:59:32.859Z,17.23
